sensor_id;sensor_type;location;lat;lon;timestamp;P1;durP1;ratioP1;P2;durP2;ratioP2
51971;SDS011;37991;49.662;10.060;2022-08-01T00:02:02;4.95;;;2.90;;
51971;SDS011;37991;49.662;10.060;2022-08-01T00:04:28;4.28;;;2.60;;
51971;SDS011;37991;49.662;10.060;2022-08-01T00:06:53;8.75;;;2.45;;
51971;SDS011;37991;49.662;10.060;2022-08-01T00:09:18;2.38;;;2.17;;
51971;SDS011;37991;49.662;10.060;2022-08-01T00:11:44;4.85;;;2.42;;
51971;SDS011;37991;49.662;10.060;2022-08-01T00:14:10;2.20;;;2.00;;
51971;SDS011;37991;49.662;10.060;2022-08-01T00:16:35;3.53;;;2.38;;
51971;SDS011;37991;49.662;10.060;2022-08-01T00:19:01;3.83;;;2.25;;
51971;SDS011;37991;49.662;10.060;2022-08-01T00:21:27;2.05;;;1.85;;
51971;SDS011;37991;49.662;10.060;2022-08-01T00:23:52;3.78;;;2.60;;
51971;SDS011;37991;49.662;10.060;2022-08-01T00:26:17;3.78;;;2.53;;
51971;SDS011;37991;49.662;10.060;2022-08-01T00:28:43;3.53;;;2.20;;
51971;SDS011;37991;49.662;10.060;2022-08-01T00:31:08;6.90;;;2.47;;
51971;SDS011;37991;49.662;10.060;2022-08-01T00:33:34;3.17;;;2.13;;
51971;SDS011;37991;49.662;10.060;2022-08-01T00:35:59;3.55;;;2.25;;
51971;SDS011;37991;49.662;10.060;2022-08-01T00:38:24;6.80;;;2.20;;
51971;SDS011;37991;49.662;10.060;2022-08-01T00:40:50;4.60;;;2.50;;
51971;SDS011;37991;49.662;10.060;2022-08-01T00:43:15;2.80;;;2.15;;
51971;SDS011;37991;49.662;10.060;2022-08-01T00:45:41;3.30;;;2.30;;
51971;SDS011;37991;49.662;10.060;2022-08-01T00:48:06;4.22;;;2.58;;
51971;SDS011;37991;49.662;10.060;2022-08-01T00:50:32;3.78;;;2.33;;
51971;SDS011;37991;49.662;10.060;2022-08-01T00:52:58;3.78;;;2.40;;
51971;SDS011;37991;49.662;10.060;2022-08-01T00:55:24;3.65;;;2.42;;
51971;SDS011;37991;49.662;10.060;2022-08-01T00:57:51;2.90;;;2.35;;
51971;SDS011;37991;49.662;10.060;2022-08-01T01:00:17;3.90;;;2.50;;
51971;SDS011;37991;49.662;10.060;2022-08-01T01:02:43;2.30;;;2.10;;
51971;SDS011;37991;49.662;10.060;2022-08-01T01:05:09;3.10;;;2.70;;
51971;SDS011;37991;49.662;10.060;2022-08-01T01:07:44;4.32;;;2.33;;
51971;SDS011;37991;49.662;10.060;2022-08-01T01:10:17;2.72;;;2.30;;
51971;SDS011;37991;49.662;10.060;2022-08-01T01:12:52;5.00;;;2.40;;
51971;SDS011;37991;49.662;10.060;2022-08-01T01:18:07;2.80;;;2.40;;
51971;SDS011;37991;49.662;10.060;2022-08-01T01:20:37;4.10;;;2.47;;
51971;SDS011;37991;49.662;10.060;2022-08-01T01:31:26;3.25;;;2.38;;
51971;SDS011;37991;49.662;10.060;2022-08-01T01:33:53;3.13;;;2.40;;
51971;SDS011;37991;49.662;10.060;2022-08-01T01:36:22;2.55;;;2.35;;
51971;SDS011;37991;49.662;10.060;2022-08-01T01:38:51;4.18;;;2.22;;
51971;SDS011;37991;49.662;10.060;2022-08-01T01:41:17;3.22;;;2.55;;
51971;SDS011;37991;49.662;10.060;2022-08-01T01:43:43;3.28;;;2.30;;
51971;SDS011;37991;49.662;10.060;2022-08-01T01:46:11;2.20;;;2.00;;
51971;SDS011;37991;49.662;10.060;2022-08-01T01:48:42;3.85;;;2.50;;
51971;SDS011;37991;49.662;10.060;2022-08-01T01:51:09;2.88;;;2.30;;
51971;SDS011;37991;49.662;10.060;2022-08-01T01:53:37;4.25;;;2.28;;
51971;SDS011;37991;49.662;10.060;2022-08-01T01:56:04;5.10;;;2.60;;
51971;SDS011;37991;49.662;10.060;2022-08-01T01:58:30;3.63;;;2.50;;
51971;SDS011;37991;49.662;10.060;2022-08-01T02:00:58;3.05;;;2.38;;
51971;SDS011;37991;49.662;10.060;2022-08-01T02:03:25;2.60;;;2.40;;
51971;SDS011;37991;49.662;10.060;2022-08-01T02:05:51;2.38;;;2.05;;
51971;SDS011;37991;49.662;10.060;2022-08-01T02:08:18;5.45;;;2.42;;
51971;SDS011;37991;49.662;10.060;2022-08-01T02:10:45;2.65;;;2.38;;
51971;SDS011;37991;49.662;10.060;2022-08-01T02:13:31;4.65;;;2.40;;
51971;SDS011;37991;49.662;10.060;2022-08-01T02:15:59;5.22;;;2.80;;
51971;SDS011;37991;49.662;10.060;2022-08-01T02:18:25;3.67;;;2.53;;
51971;SDS011;37991;49.662;10.060;2022-08-01T02:20:52;2.53;;;2.30;;
51971;SDS011;37991;49.662;10.060;2022-08-01T02:23:20;3.50;;;2.42;;
51971;SDS011;37991;49.662;10.060;2022-08-01T02:25:49;4.10;;;2.40;;
51971;SDS011;37991;49.662;10.060;2022-08-01T02:28:17;3.53;;;2.40;;
51971;SDS011;37991;49.662;10.060;2022-08-01T02:30:50;3.08;;;2.20;;
51971;SDS011;37991;49.662;10.060;2022-08-01T02:33:20;4.00;;;2.38;;
51971;SDS011;37991;49.662;10.060;2022-08-01T02:35:51;2.75;;;2.35;;
51971;SDS011;37991;49.662;10.060;2022-08-01T02:38:20;6.10;;;2.45;;
51971;SDS011;37991;49.662;10.060;2022-08-01T02:40:49;3.80;;;2.40;;
51971;SDS011;37991;49.662;10.060;2022-08-01T02:43:18;2.75;;;2.40;;
51971;SDS011;37991;49.662;10.060;2022-08-01T02:45:47;3.75;;;2.30;;
51971;SDS011;37991;49.662;10.060;2022-08-01T02:48:16;3.88;;;2.40;;
51971;SDS011;37991;49.662;10.060;2022-08-01T02:50:45;3.13;;;2.58;;
51971;SDS011;37991;49.662;10.060;2022-08-01T02:53:13;3.10;;;2.25;;
51971;SDS011;37991;49.662;10.060;2022-08-01T02:55:42;2.75;;;2.20;;
51971;SDS011;37991;49.662;10.060;2022-08-01T02:58:10;3.25;;;2.47;;
51971;SDS011;37991;49.662;10.060;2022-08-01T03:00:37;3.38;;;2.78;;
51971;SDS011;37991;49.662;10.060;2022-08-01T03:03:05;2.92;;;2.25;;
51971;SDS011;37991;49.662;10.060;2022-08-01T03:05:32;3.63;;;2.75;;
51971;SDS011;37991;49.662;10.060;2022-08-01T03:07:59;4.85;;;2.50;;
51971;SDS011;37991;49.662;10.060;2022-08-01T03:10:28;6.80;;;2.95;;
51971;SDS011;37991;49.662;10.060;2022-08-01T03:12:55;5.22;;;2.55;;
51971;SDS011;37991;49.662;10.060;2022-08-01T03:15:24;4.00;;;2.83;;
51971;SDS011;37991;49.662;10.060;2022-08-01T03:17:51;5.43;;;2.67;;
51971;SDS011;37991;49.662;10.060;2022-08-01T03:20:20;4.70;;;2.58;;
51971;SDS011;37991;49.662;10.060;2022-08-01T03:22:47;3.25;;;2.50;;
51971;SDS011;37991;49.662;10.060;2022-08-01T03:25:14;5.55;;;2.60;;
51971;SDS011;37991;49.662;10.060;2022-08-01T03:27:41;3.03;;;2.28;;
51971;SDS011;37991;49.662;10.060;2022-08-01T03:30:08;2.45;;;2.25;;
51971;SDS011;37991;49.662;10.060;2022-08-01T03:32:35;3.38;;;2.80;;
51971;SDS011;37991;49.662;10.060;2022-08-01T03:35:01;4.03;;;2.40;;
51971;SDS011;37991;49.662;10.060;2022-08-01T03:37:27;2.90;;;2.53;;
51971;SDS011;37991;49.662;10.060;2022-08-01T03:40:20;3.03;;;2.35;;
51971;SDS011;37991;49.662;10.060;2022-08-01T03:42:50;2.60;;;2.33;;
51971;SDS011;37991;49.662;10.060;2022-08-01T03:45:21;3.30;;;2.50;;
51971;SDS011;37991;49.662;10.060;2022-08-01T03:47:49;2.67;;;2.22;;
51971;SDS011;37991;49.662;10.060;2022-08-01T03:50:20;4.03;;;2.50;;
51971;SDS011;37991;49.662;10.060;2022-08-01T03:52:49;3.30;;;2.45;;
51971;SDS011;37991;49.662;10.060;2022-08-01T03:55:16;2.50;;;2.20;;
51971;SDS011;37991;49.662;10.060;2022-08-01T03:57:43;3.92;;;2.05;;
51971;SDS011;37991;49.662;10.060;2022-08-01T04:00:10;3.00;;;2.30;;
51971;SDS011;37991;49.662;10.060;2022-08-01T04:02:39;2.28;;;2.00;;
51971;SDS011;37991;49.662;10.060;2022-08-01T04:05:05;2.70;;;2.08;;
51971;SDS011;37991;49.662;10.060;2022-08-01T04:07:33;3.20;;;2.05;;
51971;SDS011;37991;49.662;10.060;2022-08-01T04:10:01;2.90;;;2.42;;
51971;SDS011;37991;49.662;10.060;2022-08-01T04:12:28;2.78;;;1.95;;
51971;SDS011;37991;49.662;10.060;2022-08-01T04:14:53;3.58;;;2.20;;
51971;SDS011;37991;49.662;10.060;2022-08-01T04:17:18;8.40;;;1.80;;
51971;SDS011;37991;49.662;10.060;2022-08-01T04:19:44;2.83;;;2.03;;
51971;SDS011;37991;49.662;10.060;2022-08-01T04:22:10;4.85;;;2.28;;
51971;SDS011;37991;49.662;10.060;2022-08-01T04:24:38;3.50;;;2.13;;
51971;SDS011;37991;49.662;10.060;2022-08-01T04:27:05;3.35;;;2.25;;
51971;SDS011;37991;49.662;10.060;2022-08-01T04:29:34;4.78;;;2.58;;
51971;SDS011;37991;49.662;10.060;2022-08-01T04:32:02;4.38;;;2.30;;
51971;SDS011;37991;49.662;10.060;2022-08-01T04:34:28;2.10;;;1.90;;
51971;SDS011;37991;49.662;10.060;2022-08-01T04:36:56;4.18;;;2.05;;
51971;SDS011;37991;49.662;10.060;2022-08-01T04:39:23;2.70;;;2.00;;
51971;SDS011;37991;49.662;10.060;2022-08-01T04:41:55;3.92;;;2.08;;
51971;SDS011;37991;49.662;10.060;2022-08-01T04:44:23;4.97;;;2.45;;
51971;SDS011;37991;49.662;10.060;2022-08-01T04:46:51;3.38;;;2.10;;
51971;SDS011;37991;49.662;10.060;2022-08-01T04:49:19;6.47;;;2.13;;
51971;SDS011;37991;49.662;10.060;2022-08-01T04:51:50;2.30;;;2.10;;
51971;SDS011;37991;49.662;10.060;2022-08-01T04:54:17;3.10;;;2.28;;
51971;SDS011;37991;49.662;10.060;2022-08-01T04:56:43;3.80;;;2.50;;
51971;SDS011;37991;49.662;10.060;2022-08-01T04:59:08;4.43;;;2.42;;
51971;SDS011;37991;49.662;10.060;2022-08-01T05:01:52;3.28;;;2.00;;
51971;SDS011;37991;49.662;10.060;2022-08-01T05:04:17;4.00;;;2.60;;
51971;SDS011;37991;49.662;10.060;2022-08-01T05:06:43;3.55;;;2.42;;
51971;SDS011;37991;49.662;10.060;2022-08-01T05:09:08;3.35;;;2.67;;
51971;SDS011;37991;49.662;10.060;2022-08-01T05:11:34;4.22;;;2.17;;
51971;SDS011;37991;49.662;10.060;2022-08-01T05:13:59;4.28;;;2.15;;
51971;SDS011;37991;49.662;10.060;2022-08-01T05:16:25;2.50;;;2.13;;
51971;SDS011;37991;49.662;10.060;2022-08-01T05:18:51;4.07;;;2.22;;
51971;SDS011;37991;49.662;10.060;2022-08-01T05:21:17;3.20;;;2.28;;
51971;SDS011;37991;49.662;10.060;2022-08-01T05:23:42;4.82;;;2.60;;
51971;SDS011;37991;49.662;10.060;2022-08-01T05:26:07;4.72;;;2.13;;
51971;SDS011;37991;49.662;10.060;2022-08-01T05:28:33;3.25;;;2.40;;
51971;SDS011;37991;49.662;10.060;2022-08-01T05:30:58;3.78;;;2.20;;
51971;SDS011;37991;49.662;10.060;2022-08-01T05:33:24;2.75;;;2.22;;
51971;SDS011;37991;49.662;10.060;2022-08-01T05:35:49;5.15;;;2.28;;
51971;SDS011;37991;49.662;10.060;2022-08-01T05:38:15;7.20;;;2.20;;
51971;SDS011;37991;49.662;10.060;2022-08-01T05:40:40;3.53;;;2.40;;
51971;SDS011;37991;49.662;10.060;2022-08-01T05:43:05;2.78;;;2.13;;
51971;SDS011;37991;49.662;10.060;2022-08-01T05:45:31;4.97;;;2.10;;
51971;SDS011;37991;49.662;10.060;2022-08-01T05:47:56;2.33;;;1.80;;
51971;SDS011;37991;49.662;10.060;2022-08-01T05:50:21;2.80;;;2.00;;
51971;SDS011;37991;49.662;10.060;2022-08-01T05:52:47;2.33;;;2.10;;
51971;SDS011;37991;49.662;10.060;2022-08-01T05:55:12;6.32;;;2.17;;
51971;SDS011;37991;49.662;10.060;2022-08-01T05:57:37;2.50;;;2.30;;
51971;SDS011;37991;49.662;10.060;2022-08-01T06:00:03;3.10;;;1.80;;
51971;SDS011;37991;49.662;10.060;2022-08-01T06:02:39;2.08;;;1.85;;
51971;SDS011;37991;49.662;10.060;2022-08-01T06:05:05;4.57;;;1.92;;
51971;SDS011;37991;49.662;10.060;2022-08-01T06:07:31;4.90;;;2.10;;
51971;SDS011;37991;49.662;10.060;2022-08-01T06:09:57;4.82;;;2.22;;
51971;SDS011;37991;49.662;10.060;2022-08-01T06:12:22;2.63;;;1.75;;
51971;SDS011;37991;49.662;10.060;2022-08-01T06:14:48;4.65;;;1.90;;
51971;SDS011;37991;49.662;10.060;2022-08-01T06:17:13;5.20;;;2.08;;
51971;SDS011;37991;49.662;10.060;2022-08-01T06:19:38;4.78;;;2.10;;
51971;SDS011;37991;49.662;10.060;2022-08-01T06:22:04;3.72;;;2.13;;
51971;SDS011;37991;49.662;10.060;2022-08-01T06:24:29;2.95;;;1.80;;
51971;SDS011;37991;49.662;10.060;2022-08-01T06:26:54;4.53;;;1.95;;
51971;SDS011;37991;49.662;10.060;2022-08-01T06:29:20;3.30;;;1.88;;
51971;SDS011;37991;49.662;10.060;2022-08-01T06:31:45;3.42;;;1.85;;
51971;SDS011;37991;49.662;10.060;2022-08-01T06:34:10;1.92;;;1.73;;
51971;SDS011;37991;49.662;10.060;2022-08-01T06:36:36;2.22;;;1.80;;
51971;SDS011;37991;49.662;10.060;2022-08-01T06:39:01;4.43;;;2.03;;
51971;SDS011;37991;49.662;10.060;2022-08-01T06:41:27;3.13;;;2.10;;
51971;SDS011;37991;49.662;10.060;2022-08-01T06:43:52;5.55;;;2.10;;
51971;SDS011;37991;49.662;10.060;2022-08-01T06:46:17;3.28;;;1.60;;
51971;SDS011;37991;49.662;10.060;2022-08-01T06:48:42;7.43;;;1.83;;
51971;SDS011;37991;49.662;10.060;2022-08-01T06:51:08;2.20;;;1.80;;
51971;SDS011;37991;49.662;10.060;2022-08-01T06:53:34;3.38;;;1.88;;
51971;SDS011;37991;49.662;10.060;2022-08-01T06:56:01;3.20;;;1.98;;
51971;SDS011;37991;49.662;10.060;2022-08-01T06:58:27;2.53;;;1.70;;
51971;SDS011;37991;49.662;10.060;2022-08-01T07:00:52;4.88;;;1.75;;
51971;SDS011;37991;49.662;10.060;2022-08-01T07:03:17;3.10;;;1.90;;
51971;SDS011;37991;49.662;10.060;2022-08-01T07:05:43;2.45;;;1.70;;
51971;SDS011;37991;49.662;10.060;2022-08-01T07:08:08;2.20;;;1.60;;
51971;SDS011;37991;49.662;10.060;2022-08-01T07:10:33;3.05;;;1.70;;
51971;SDS011;37991;49.662;10.060;2022-08-01T07:12:59;3.58;;;1.70;;
51971;SDS011;37991;49.662;10.060;2022-08-01T07:15:24;4.30;;;1.50;;
51971;SDS011;37991;49.662;10.060;2022-08-01T07:17:51;3.78;;;1.70;;
51971;SDS011;37991;49.662;10.060;2022-08-01T07:20:17;1.20;;;1.10;;
51971;SDS011;37991;49.662;10.060;2022-08-01T07:22:43;2.83;;;1.63;;
51971;SDS011;37991;49.662;10.060;2022-08-01T07:25:08;3.05;;;1.50;;
51971;SDS011;37991;49.662;10.060;2022-08-01T07:27:34;2.00;;;1.50;;
51971;SDS011;37991;49.662;10.060;2022-08-01T07:30:00;1.92;;;1.40;;
51971;SDS011;37991;49.662;10.060;2022-08-01T07:32:26;1.42;;;1.33;;
51971;SDS011;37991;49.662;10.060;2022-08-01T07:34:51;2.05;;;1.38;;
51971;SDS011;37991;49.662;10.060;2022-08-01T07:37:17;3.05;;;1.40;;
51971;SDS011;37991;49.662;10.060;2022-08-01T07:39:43;1.30;;;1.20;;
51971;SDS011;37991;49.662;10.060;2022-08-01T07:42:08;1.75;;;1.30;;
51971;SDS011;37991;49.662;10.060;2022-08-01T07:44:34;2.03;;;1.40;;
51971;SDS011;37991;49.662;10.060;2022-08-01T07:47:00;4.15;;;1.30;;
51971;SDS011;37991;49.662;10.060;2022-08-01T07:49:26;1.70;;;1.52;;
51971;SDS011;37991;49.662;10.060;2022-08-01T07:51:51;3.97;;;1.10;;
51971;SDS011;37991;49.662;10.060;2022-08-01T07:54:17;1.25;;;1.15;;
51971;SDS011;37991;49.662;10.060;2022-08-01T07:56:42;1.55;;;1.30;;
51971;SDS011;37991;49.662;10.060;2022-08-01T07:59:08;1.30;;;1.20;;
51971;SDS011;37991;49.662;10.060;2022-08-01T08:01:33;3.08;;;1.20;;
51971;SDS011;37991;49.662;10.060;2022-08-01T08:03:58;7.10;;;1.73;;
51971;SDS011;37991;49.662;10.060;2022-08-01T08:06:24;2.42;;;1.50;;
51971;SDS011;37991;49.662;10.060;2022-08-01T08:08:49;1.13;;;1.02;;
51971;SDS011;37991;49.662;10.060;2022-08-01T08:11:14;1.45;;;1.35;;
51971;SDS011;37991;49.662;10.060;2022-08-01T08:13:40;1.42;;;1.23;;
51971;SDS011;37991;49.662;10.060;2022-08-01T08:16:05;2.78;;;1.38;;
51971;SDS011;37991;49.662;10.060;2022-08-01T08:18:30;3.97;;;1.50;;
51971;SDS011;37991;49.662;10.060;2022-08-01T08:20:56;1.63;;;1.52;;
51971;SDS011;37991;49.662;10.060;2022-08-01T08:23:21;1.77;;;1.42;;
51971;SDS011;37991;49.662;10.060;2022-08-01T08:26:05;3.67;;;1.65;;
51971;SDS011;37991;49.662;10.060;2022-08-01T08:28:31;1.67;;;1.50;;
51971;SDS011;37991;49.662;10.060;2022-08-01T08:30:56;3.65;;;1.60;;
51971;SDS011;37991;49.662;10.060;2022-08-01T08:33:21;1.35;;;1.25;;
51971;SDS011;37991;49.662;10.060;2022-08-01T08:35:46;2.85;;;1.25;;
51971;SDS011;37991;49.662;10.060;2022-08-01T08:38:12;1.63;;;1.30;;
51971;SDS011;37991;49.662;10.060;2022-08-01T08:40:37;3.08;;;1.48;;
51971;SDS011;37991;49.662;10.060;2022-08-01T08:43:04;2.00;;;1.80;;
51971;SDS011;37991;49.662;10.060;2022-08-01T08:45:30;2.13;;;1.38;;
51971;SDS011;37991;49.662;10.060;2022-08-01T08:47:56;1.70;;;1.30;;
51971;SDS011;37991;49.662;10.060;2022-08-01T08:50:23;1.58;;;1.48;;
51971;SDS011;37991;49.662;10.060;2022-08-01T08:52:50;2.75;;;1.63;;
51971;SDS011;37991;49.662;10.060;2022-08-01T08:55:17;1.70;;;1.40;;
51971;SDS011;37991;49.662;10.060;2022-08-01T08:57:43;2.65;;;1.67;;
51971;SDS011;37991;49.662;10.060;2022-08-01T09:00:09;2.25;;;1.73;;
51971;SDS011;37991;49.662;10.060;2022-08-01T09:02:39;2.83;;;1.77;;
51971;SDS011;37991;49.662;10.060;2022-08-01T09:05:06;2.70;;;1.50;;
51971;SDS011;37991;49.662;10.060;2022-08-01T09:07:32;6.22;;;1.70;;
51971;SDS011;37991;49.662;10.060;2022-08-01T09:09:58;2.33;;;1.60;;
51971;SDS011;37991;49.662;10.060;2022-08-01T09:12:23;4.03;;;1.92;;
51971;SDS011;37991;49.662;10.060;2022-08-01T09:14:48;2.40;;;1.30;;
51971;SDS011;37991;49.662;10.060;2022-08-01T09:17:15;2.55;;;1.67;;
51971;SDS011;37991;49.662;10.060;2022-08-01T09:19:42;1.92;;;1.55;;
51971;SDS011;37991;49.662;10.060;2022-08-01T09:22:09;2.10;;;1.23;;
51971;SDS011;37991;49.662;10.060;2022-08-01T09:24:37;1.52;;;1.17;;
51971;SDS011;37991;49.662;10.060;2022-08-01T09:27:17;1.92;;;1.60;;
51971;SDS011;37991;49.662;10.060;2022-08-01T09:29:44;2.50;;;1.52;;
51971;SDS011;37991;49.662;10.060;2022-08-01T09:32:09;2.13;;;1.17;;
51971;SDS011;37991;49.662;10.060;2022-08-01T09:34:35;4.28;;;1.67;;
51971;SDS011;37991;49.662;10.060;2022-08-01T09:37:01;3.30;;;1.30;;
51971;SDS011;37991;49.662;10.060;2022-08-01T09:39:34;1.77;;;1.35;;
51971;SDS011;37991;49.662;10.060;2022-08-01T09:42:24;3.17;;;1.38;;
51971;SDS011;37991;49.662;10.060;2022-08-01T09:44:52;1.77;;;1.17;;
51971;SDS011;37991;49.662;10.060;2022-08-01T09:47:18;2.38;;;1.10;;
51971;SDS011;37991;49.662;10.060;2022-08-01T09:49:45;1.73;;;1.35;;
51971;SDS011;37991;49.662;10.060;2022-08-01T09:52:20;2.40;;;1.88;;
51971;SDS011;37991;49.662;10.060;2022-08-01T09:57:24;3.70;;;1.70;;
51971;SDS011;37991;49.662;10.060;2022-08-01T09:59:52;2.55;;;1.35;;
51971;SDS011;37991;49.662;10.060;2022-08-01T10:02:31;2.28;;;1.55;;
51971;SDS011;37991;49.662;10.060;2022-08-01T10:05:02;1.70;;;1.20;;
51971;SDS011;37991;49.662;10.060;2022-08-01T10:07:29;1.63;;;1.38;;
51971;SDS011;37991;49.662;10.060;2022-08-01T10:09:55;1.23;;;1.13;;
51971;SDS011;37991;49.662;10.060;2022-08-01T10:12:21;1.90;;;1.70;;
51971;SDS011;37991;49.662;10.060;2022-08-01T10:14:49;1.35;;;1.10;;
51971;SDS011;37991;49.662;10.060;2022-08-01T10:17:17;2.65;;;1.40;;
51971;SDS011;37991;49.662;10.060;2022-08-01T10:19:44;1.50;;;1.40;;
51971;SDS011;37991;49.662;10.060;2022-08-01T10:22:11;2.63;;;1.08;;
51971;SDS011;37991;49.662;10.060;2022-08-01T10:24:41;1.92;;;1.20;;
51971;SDS011;37991;49.662;10.060;2022-08-01T10:27:09;2.22;;;1.40;;
51971;SDS011;37991;49.662;10.060;2022-08-01T10:29:36;3.78;;;1.15;;
51971;SDS011;37991;49.662;10.060;2022-08-01T10:32:06;3.28;;;1.02;;
51971;SDS011;37991;49.662;10.060;2022-08-01T10:34:34;3.03;;;1.00;;
51971;SDS011;37991;49.662;10.060;2022-08-01T10:37:01;3.08;;;1.25;;
51971;SDS011;37991;49.662;10.060;2022-08-01T10:39:26;1.40;;;1.02;;
51971;SDS011;37991;49.662;10.060;2022-08-01T10:41:55;1.73;;;1.10;;
51971;SDS011;37991;49.662;10.060;2022-08-01T10:44:20;1.10;;;1.00;;
51971;SDS011;37991;49.662;10.060;2022-08-01T10:46:46;1.02;;;0.80;;
51971;SDS011;37991;49.662;10.060;2022-08-01T10:49:16;2.38;;;1.02;;
51971;SDS011;37991;49.662;10.060;2022-08-01T10:51:45;0.85;;;0.80;;
51971;SDS011;37991;49.662;10.060;2022-08-01T10:54:12;1.48;;;1.10;;
51971;SDS011;37991;49.662;10.060;2022-08-01T10:56:39;0.80;;;0.80;;
51971;SDS011;37991;49.662;10.060;2022-08-01T10:59:04;2.28;;;0.90;;
51971;SDS011;37991;49.662;10.060;2022-08-01T11:01:30;1.35;;;0.90;;
51971;SDS011;37991;49.662;10.060;2022-08-01T11:06:25;1.33;;;0.80;;
51971;SDS011;37991;49.662;10.060;2022-08-01T11:11:56;1.85;;;1.20;;
51971;SDS011;37991;49.662;10.060;2022-08-01T11:14:25;1.20;;;1.08;;
51971;SDS011;37991;49.662;10.060;2022-08-01T11:16:51;1.13;;;1.02;;
51971;SDS011;37991;49.662;10.060;2022-08-01T11:19:16;1.58;;;0.90;;
51971;SDS011;37991;49.662;10.060;2022-08-01T11:32:33;0.85;;;0.85;;
51971;SDS011;37991;49.662;10.060;2022-08-01T11:34:58;1.45;;;1.02;;
51971;SDS011;37991;49.662;10.060;2022-08-01T11:37:25;1.10;;;1.00;;
51971;SDS011;37991;49.662;10.060;2022-08-01T11:42:47;4.05;;;0.98;;
51971;SDS011;37991;49.662;10.060;2022-08-01T11:45:13;2.35;;;1.10;;
51971;SDS011;37991;49.662;10.060;2022-08-01T11:47:49;1.75;;;1.00;;
51971;SDS011;37991;49.662;10.060;2022-08-01T11:55:27;0.70;;;0.70;;
51971;SDS011;37991;49.662;10.060;2022-08-01T11:58:05;1.00;;;0.80;;
51971;SDS011;37991;49.662;10.060;2022-08-01T12:00:32;2.42;;;0.90;;
51971;SDS011;37991;49.662;10.060;2022-08-01T12:02:59;1.55;;;0.80;;
51971;SDS011;37991;49.662;10.060;2022-08-01T12:05:32;1.15;;;0.77;;
51971;SDS011;37991;49.662;10.060;2022-08-01T12:07:59;1.73;;;0.80;;
51971;SDS011;37991;49.662;10.060;2022-08-01T12:10:29;4.05;;;0.80;;
51971;SDS011;37991;49.662;10.060;2022-08-01T12:13:01;1.58;;;0.82;;
51971;SDS011;37991;49.662;10.060;2022-08-01T12:15:29;1.75;;;1.00;;
51971;SDS011;37991;49.662;10.060;2022-08-01T12:17:57;0.80;;;0.80;;
51971;SDS011;37991;49.662;10.060;2022-08-01T12:20:24;1.75;;;0.98;;
51971;SDS011;37991;49.662;10.060;2022-08-01T12:23:05;1.00;;;1.00;;
51971;SDS011;37991;49.662;10.060;2022-08-01T12:25:32;2.28;;;0.85;;
51971;SDS011;37991;49.662;10.060;2022-08-01T12:28:02;1.23;;;1.13;;
51971;SDS011;37991;49.662;10.060;2022-08-01T12:30:29;1.45;;;1.25;;
51971;SDS011;37991;49.662;10.060;2022-08-01T12:33:02;1.42;;;1.00;;
51971;SDS011;37991;49.662;10.060;2022-08-01T12:35:29;0.90;;;0.80;;
51971;SDS011;37991;49.662;10.060;2022-08-01T12:37:59;0.70;;;0.70;;
51971;SDS011;37991;49.662;10.060;2022-08-01T12:42:57;1.48;;;0.75;;
51971;SDS011;37991;49.662;10.060;2022-08-01T12:45:35;0.98;;;0.90;;
51971;SDS011;37991;49.662;10.060;2022-08-01T12:48:07;0.80;;;0.80;;
51971;SDS011;37991;49.662;10.060;2022-08-01T12:50:41;0.98;;;0.88;;
51971;SDS011;37991;49.662;10.060;2022-08-01T12:53:08;2.00;;;1.02;;
51971;SDS011;37991;49.662;10.060;2022-08-01T12:55:43;0.90;;;0.90;;
51971;SDS011;37991;49.662;10.060;2022-08-01T12:58:19;1.75;;;0.90;;
51971;SDS011;37991;49.662;10.060;2022-08-01T13:00:45;1.17;;;0.90;;
51971;SDS011;37991;49.662;10.060;2022-08-01T13:03:13;1.08;;;0.70;;
51971;SDS011;37991;49.662;10.060;2022-08-01T13:05:54;1.60;;;1.15;;
51971;SDS011;37991;49.662;10.060;2022-08-01T13:08:21;0.90;;;0.73;;
51971;SDS011;37991;49.662;10.060;2022-08-01T13:10:48;0.73;;;0.73;;
51971;SDS011;37991;49.662;10.060;2022-08-01T13:13:15;0.77;;;0.77;;
51971;SDS011;37991;49.662;10.060;2022-08-01T13:15:42;0.80;;;0.80;;
51971;SDS011;37991;49.662;10.060;2022-08-01T13:18:31;0.88;;;0.82;;
51971;SDS011;37991;49.662;10.060;2022-08-01T13:24:10;0.73;;;0.65;;
51971;SDS011;37991;49.662;10.060;2022-08-01T13:26:38;2.95;;;1.08;;
51971;SDS011;37991;49.662;10.060;2022-08-01T13:29:09;1.00;;;0.90;;
51971;SDS011;37991;49.662;10.060;2022-08-01T13:31:37;1.75;;;0.80;;
51971;SDS011;37991;49.662;10.060;2022-08-01T13:34:03;0.90;;;0.90;;
51971;SDS011;37991;49.662;10.060;2022-08-01T13:36:29;1.70;;;1.10;;
51971;SDS011;37991;49.662;10.060;2022-08-01T13:38:59;2.88;;;0.80;;
51971;SDS011;37991;49.662;10.060;2022-08-01T13:41:43;0.90;;;0.90;;
51971;SDS011;37991;49.662;10.060;2022-08-01T13:44:09;0.70;;;0.70;;
51971;SDS011;37991;49.662;10.060;2022-08-01T13:46:38;2.08;;;1.13;;
51971;SDS011;37991;49.662;10.060;2022-08-01T13:49:05;0.90;;;0.90;;
51971;SDS011;37991;49.662;10.060;2022-08-01T13:51:32;1.10;;;1.00;;
51971;SDS011;37991;49.662;10.060;2022-08-01T13:53:58;1.27;;;1.00;;
51971;SDS011;37991;49.662;10.060;2022-08-01T13:56:24;1.27;;;0.95;;
51971;SDS011;37991;49.662;10.060;2022-08-01T13:58:50;1.80;;;0.80;;
51971;SDS011;37991;49.662;10.060;2022-08-01T14:01:15;3.30;;;0.95;;
51971;SDS011;37991;49.662;10.060;2022-08-01T14:03:41;0.80;;;0.80;;
51971;SDS011;37991;49.662;10.060;2022-08-01T14:06:06;1.05;;;0.88;;
51971;SDS011;37991;49.662;10.060;2022-08-01T14:08:31;0.65;;;0.65;;
51971;SDS011;37991;49.662;10.060;2022-08-01T14:10:57;2.20;;;0.95;;
51971;SDS011;37991;49.662;10.060;2022-08-01T14:13:27;0.60;;;0.60;;
51971;SDS011;37991;49.662;10.060;2022-08-01T14:15:53;1.42;;;0.90;;
51971;SDS011;37991;49.662;10.060;2022-08-01T14:18:18;1.40;;;1.17;;
51971;SDS011;37991;49.662;10.060;2022-08-01T14:20:44;1.30;;;0.95;;
51971;SDS011;37991;49.662;10.060;2022-08-01T14:23:09;1.23;;;1.13;;
51971;SDS011;37991;49.662;10.060;2022-08-01T14:25:36;0.88;;;0.88;;
51971;SDS011;37991;49.662;10.060;2022-08-01T14:28:02;1.20;;;1.10;;
51971;SDS011;37991;49.662;10.060;2022-08-01T14:30:28;1.88;;;1.02;;
51971;SDS011;37991;49.662;10.060;2022-08-01T14:32:53;1.30;;;1.20;;
51971;SDS011;37991;49.662;10.060;2022-08-01T14:35:19;0.80;;;0.80;;
51971;SDS011;37991;49.662;10.060;2022-08-01T14:37:44;0.90;;;0.90;;
51971;SDS011;37991;49.662;10.060;2022-08-01T14:40:09;1.02;;;0.80;;
51971;SDS011;37991;49.662;10.060;2022-08-01T14:42:36;1.45;;;1.10;;
51971;SDS011;37991;49.662;10.060;2022-08-01T14:45:03;1.35;;;1.20;;
51971;SDS011;37991;49.662;10.060;2022-08-01T14:47:33;1.08;;;0.90;;
51971;SDS011;37991;49.662;10.060;2022-08-01T14:50:07;3.58;;;1.48;;
51971;SDS011;37991;49.662;10.060;2022-08-01T14:52:35;1.50;;;1.17;;
51971;SDS011;37991;49.662;10.060;2022-08-01T14:55:01;2.50;;;1.73;;
51971;SDS011;37991;49.662;10.060;2022-08-01T14:57:27;1.60;;;1.50;;
51971;SDS011;37991;49.662;10.060;2022-08-01T14:59:53;2.28;;;1.52;;
51971;SDS011;37991;49.662;10.060;2022-08-01T15:02:18;3.75;;;1.48;;
51971;SDS011;37991;49.662;10.060;2022-08-01T15:04:44;2.53;;;1.70;;
51971;SDS011;37991;49.662;10.060;2022-08-01T15:07:10;1.65;;;1.25;;
51971;SDS011;37991;49.662;10.060;2022-08-01T15:09:36;7.65;;;1.73;;
51971;SDS011;37991;49.662;10.060;2022-08-01T15:12:02;1.48;;;1.30;;
51971;SDS011;37991;49.662;10.060;2022-08-01T15:14:27;2.38;;;1.40;;
51971;SDS011;37991;49.662;10.060;2022-08-01T15:17:11;2.23;;;1.40;;
51971;SDS011;37991;49.662;10.060;2022-08-01T15:19:36;2.40;;;1.50;;